Time;durP1;ratioP1;P1;durP2;ratioP2;P2;SDS_P1;SDS_P2;PMS_P1;PMS_P2;Temp;Humidity;BMP_temperature;BMP_pressure;BME280_temperature;BME280_humidity;BME280_pressure;Samples;Min_cycle;Max_cycle;Signal;HPM_P1;HPM_P2
2022/10/01 00:00:35;;;;;;;1.35;0.90;;;18.30;69.30;;;;;;10352601;28;20104;-37
2022/10/01 00:05:37;;;;;;;3.53;1.38;;;19.30;65.60;;;;;;10361878;28;20041;-43
2022/10/01 00:10:41;;;;;;;2.03;0.77;;;18.50;67.60;;;;;;10361856;28;20069;-39
2022/10/01 00:15:45;;;;;;;1.63;0.98;;;19.30;65.30;;;;;;10363249;28;21034;-39
2022/10/01 00:20:46;;;;;;;4.43;1.10;;;19.00;66.80;;;;;;10368059;28;20133;-44
2022/10/01 00:25:49;;;;;;;1.50;1.23;;;19.10;66.10;;;;;;10359659;28;20046;-39
2022/10/01 00:30:52;;;;;;;2.60;0.90;;;18.10;71.30;;;;;;10345720;28;20173;-44
2022/10/01 00:35:55;;;;;;;3.53;1.40;;;18.10;71.50;;;;;;10380200;28;20116;-41
2022/10/01 00:40:58;;;;;;;2.80;1.05;;;18.00;70.50;;;;;;10365702;28;20054;-41
2022/10/01 00:46:03;;;;;;;;;;;17.30;74.70;;;;;;10365747;28;20505;-38
2022/10/01 00:51:06;;;;;;;4.18;1.42;;;17.80;71.40;;;;;;10370037;28;20402;-39
2022/10/01 00:56:08;;;;;;;1.77;0.80;;;17.60;72.70;;;;;;10367556;28;20403;-41
2022/10/01 01:01:11;;;;;;;1.17;0.98;;;18.40;69.10;;;;;;10355704;28;20129;-38
2022/10/01 01:06:13;;;;;;;0.95;0.80;;;17.70;72.30;;;;;;10357791;28;21045;-44
2022/10/01 01:11:22;;;;;;;0.50;0.50;;;18.10;71.00;;;;;;10364595;28;20569;-42
2022/10/01 01:16:34;;;;;;;3.60;1.10;;;18.20;70.20;;;;;;10359411;28;20512;-44
2022/10/01 01:21:41;;;;;;;3.72;1.20;;;16.30;79.10;;;;;;10368272;28;20050;-38
2022/10/01 01:26:59;;;;;;;3.10;0.90;;;15.30;86.10;;;;;;10368460;28;20050;-38
2022/10/01 01:32:08;;;;;;;3.50;0.80;;;16.30;81.90;;;;;;10358586;28;20120;-45
2022/10/01 01:37:14;;;;;;;3.95;1.27;;;17.30;77.60;;;;;;10373519;28;20081;-40
2022/10/01 01:42:21;;;;;;;2.75;1.50;;;15.70;84.80;;;;;;10362651;28;20054;-41
2022/10/01 01:47:31;;;;;;;3.50;1.80;;;15.30;85.10;;;;;;10369569;28;20037;-40
2022/10/01 01:52:34;;;;;;;1.30;1.20;;;15.00;87.40;;;;;;10352583;28;20078;-42
2022/10/01 01:57:40;;;;;;;2.92;1.23;;;15.00;87.70;;;;;;10378004;28;20069;-41
2022/10/01 02:02:50;;;;;;;3.00;1.50;;;15.00;90.20;;;;;;10366518;28;20057;-41
2022/10/01 02:08:11;;;;;;;5.47;1.20;;;15.20;88.10;;;;;;10355218;28;20123;-45
2022/10/01 02:13:29;;;;;;;1.00;0.85;;;15.00;89.00;;;;;;10364707;28;20048;-45
2022/10/01 02:18:40;;;;;;;3.08;1.20;;;15.40;87.40;;;;;;10353215;28;20161;-42
2022/10/01 02:23:51;;;;;;;1.33;0.82;;;15.00;89.80;;;;;;10344354;28;20571;-44
2022/10/01 02:28:56;;;;;;;1.20;1.10;;;15.30;86.50;;;;;;10351934;28;20078;-44
2022/10/01 02:34:02;;;;;;;1.52;1.33;;;15.40;87.90;;;;;;10347839;28;20061;-45
2022/10/01 02:39:06;;;;;;;1.27;1.02;;;15.50;86.40;;;;;;10361061;28;20041;-39
2022/10/01 02:44:12;;;;;;;1.80;1.00;;;15.20;89.60;;;;;;10348367;28;20116;-42
2022/10/01 02:49:15;;;;;;;2.47;1.15;;;15.70;87.50;;;;;;10360802;28;20531;-45
2022/10/01 02:54:22;;;;;;;0.73;0.65;;;15.70;87.30;;;;;;10352747;28;20112;-42
2022/10/01 02:59:24;;;;;;;2.65;0.70;;;16.70;79.00;;;;;;10343020;28;20178;-44
2022/10/01 03:04:27;;;;;;;2.47;0.90;;;15.90;86.20;;;;;;10359255;28;20137;-39
2022/10/01 03:09:30;;;;;;;2.38;0.98;;;15.70;89.90;;;;;;10344510;28;20140;-39
2022/10/01 03:14:32;;;;;;;2.47;0.90;;;15.40;90.90;;;;;;10354628;28;20034;-47
2022/10/01 03:19:37;;;;;;;1.40;0.70;;;15.80;89.70;;;;;;10353976;28;20088;-44
2022/10/01 03:24:39;;;;;;;1.65;0.70;;;15.50;91.20;;;;;;10342734;28;20061;-39
2022/10/01 03:29:40;;;;;;;6.10;1.63;;;16.20;86.80;;;;;;10365428;28;20057;-42
2022/10/01 03:34:44;;;;;;;9.98;1.88;;;15.80;90.70;;;;;;10350691;28;20061;-43
2022/10/01 03:39:46;;;;;;;0.85;0.52;;;15.00;92.10;;;;;;10367454;28;20057;-46
2022/10/01 03:44:47;;;;;;;5.60;0.90;;;15.50;87.40;;;;;;10365132;28;20092;-42
2022/10/01 03:49:51;;;;;;;9.35;1.38;;;15.20;92.50;;;;;;10360999;28;20107;-46
2022/10/01 03:54:53;;;;;;;5.57;1.13;;;15.10;93.70;;;;;;10368258;28;20475;-40
2022/10/01 03:59:54;;;;;;;13.63;1.87;;;15.30;93.40;;;;;;10361507;28;20136;-40
2022/10/01 04:04:58;;;;;;;10.23;1.30;;;15.00;94.90;;;;;;10348709;28;20046;-46
2022/10/01 04:10:00;;;;;;;6.75;0.80;;;16.30;85.70;;;;;;10363838;28;20054;-39
2022/10/01 04:15:01;;;;;;;1.87;0.77;;;16.80;80.00;;;;;;10349355;28;20074;-41
2022/10/01 04:20:06;;;;;;;2.30;0.83;;;16.40;82.00;;;;;;10351745;28;20089;-39
2022/10/01 04:25:09;;;;;;;9.77;1.10;;;17.00;84.80;;;;;;10359822;28;20046;-42
2022/10/01 04:30:11;;;;;;;11.35;1.35;;;16.10;91.80;;;;;;10349573;28;20066;-45
2022/10/01 04:35:15;;;;;;;3.50;0.80;;;16.10;87.60;;;;;;10370603;28;20073;-41
2022/10/01 04:40:16;;;;;;;1.33;0.50;;;16.30;90.10;;;;;;10362595;28;20481;-42
2022/10/01 04:45:18;;;;;;;2.77;0.80;;;16.50;83.90;;;;;;10342634;28;20053;-40
2022/10/01 04:50:23;;;;;;;10.27;1.60;;;16.00;87.80;;;;;;10347816;28;20038;-44
2022/10/01 04:55:25;;;;;;;8.98;1.35;;;15.90;90.50;;;;;;10349171;28;20117;-41
2022/10/01 05:00:27;;;;;;;6.93;2.25;;;16.10;90.80;;;;;;10355034;28;20123;-43
2022/10/01 05:05:31;;;;;;;16.37;2.07;;;15.50;93.70;;;;;;10355888;28;20073;-43
2022/10/01 05:10:34;;;;;;;8.18;1.45;;;15.70;91.60;;;;;;10360937;28;20045;-38
2022/10/01 05:15:36;;;;;;;11.98;2.05;;;15.90;90.60;;;;;;10357156;28;20051;-43
2022/10/01 05:20:39;;;;;;;9.30;1.90;;;15.80;89.70;;;;;;10356138;28;20133;-40
2022/10/01 05:25:41;;;;;;;14.27;2.45;;;15.70;90.30;;;;;;10360905;28;20926;-45
2022/10/01 05:30:43;;;;;;;7.88;1.60;;;15.60;92.10;;;;;;10369102;28;20045;-43
2022/10/01 05:35:46;;;;;;;11.70;1.53;;;16.00;86.70;;;;;;10352070;28;20069;-42
2022/10/01 05:40:48;;;;;;;6.05;0.88;;;15.90;91.30;;;;;;10365652;28;20069;-46
2022/10/01 05:45:50;;;;;;;5.95;1.15;;;16.10;90.20;;;;;;10355636;28;20050;-41
2022/10/01 05:50:54;;;;;;;9.27;1.48;;;16.00;90.10;;;;;;10376931;28;20549;-45
2022/10/01 05:55:55;;;;;;;9.23;1.33;;;16.30;87.10;;;;;;10363011;28;20054;-44
2022/10/01 06:00:57;;;;;;;6.20;1.43;;;16.30;87.70;;;;;;10362481;28;20053;-40
2022/10/01 06:06:01;;;;;;;10.27;1.50;;;16.40;88.10;;;;;;10362195;28;20093;-43
2022/10/01 06:11:03;;;;;;;20.95;2.35;;;16.40;90.40;;;;;;10368498;28;20062;-38
2022/10/01 06:16:05;;;;;;;5.70;1.38;;;16.20;92.30;;;;;;10377393;28;20089;-41
2022/10/01 06:21:08;;;;;;;10.43;1.15;;;16.60;90.10;;;;;;10346051;28;20042;-40
2022/10/01 06:26:10;;;;;;;17.15;2.20;;;15.80;91.00;;;;;;10361993;28;20081;-41
2022/10/01 06:31:12;;;;;;;16.10;2.53;;;16.00;93.60;;;;;;10351659;28;20713;-43
2022/10/01 06:36:15;;;;;;;16.73;2.37;;;15.70;94.30;;;;;;10368950;28;20459;-41
2022/10/01 06:41:17;;;;;;;12.68;2.30;;;15.90;91.00;;;;;;10355097;28;20053;-41
2022/10/01 06:46:19;;;;;;;14.57;2.55;;;16.30;90.20;;;;;;10359597;28;20439;-38
2022/10/01 06:52:47;;;;;;;11.83;2.57;;;16.30;90.90;;;;;;10351601;28;20136;-40
2022/10/01 06:56:44;;;;;;;11.30;1.63;;;15.80;94.00;;;;;;10358379;28;21094;-40
2022/10/01 07:01:49;;;;;;;27.87;2.30;;;15.80;92.80;;;;;;10356356;28;20121;-38
2022/10/01 07:06:52;;;;;;;8.80;1.55;;;15.60;96.50;;;;;;10348767;28;20520;-40
2022/10/01 07:11:55;;;;;;;10.77;1.80;;;15.70;94.80;;;;;;10360529;28;20503;-43
2022/10/01 07:16:57;;;;;;;21.95;2.55;;;15.70;93.00;;;;;;10364635;28;20065;-38
2022/10/01 07:22:00;;;;;;;13.77;2.00;;;15.90;93.90;;;;;;10368460;28;20049;-41
2022/10/01 07:27:02;;;;;;;15.60;1.77;;;16.30;88.80;;;;;;10351873;28;20069;-40
2022/10/01 07:32:07;;;;;;;8.60;1.40;;;16.00;94.10;;;;;;10347631;28;20091;-42
2022/10/01 07:37:11;;;;;;;10.57;1.60;;;16.30;93.00;;;;;;10350565;28;20439;-40
2022/10/01 07:42:12;;;;;;;8.75;1.73;;;16.30;93.00;;;;;;10363449;28;20046;-40
2022/10/01 07:47:14;;;;;;;8.77;1.23;;;15.90;90.10;;;;;;10355347;28;20181;-42
2022/10/01 07:52:18;;;;;;;10.70;3.05;;;16.30;90.40;;;;;;10356048;28;20057;-39
2022/10/01 07:57:19;;;;;;;8.98;1.80;;;16.40;91.30;;;;;;10358779;28;20129;-42
2022/10/01 08:02:21;;;;;;;12.60;1.47;;;16.00;88.50;;;;;;10349108;28;21357;-41
2022/10/01 08:07:24;;;;;;;16.17;2.13;;;16.50;88.20;;;;;;10361132;28;20140;-40
2022/10/01 08:12:27;;;;;;;14.88;2.40;;;16.60;90.80;;;;;;10360320;28;20099;-41
2022/10/01 08:17:29;;;;;;;17.33;2.53;;;16.70;91.00;;;;;;10363531;28;20108;-39
2022/10/01 08:22:33;;;;;;;15.43;2.50;;;16.60;88.30;;;;;;10367458;28;20137;-41
2022/10/01 08:27:34;;;;;;;15.25;1.75;;;16.80;85.80;;;;;;10364440;28;20049;-44
2022/10/01 08:32:36;;;;;;;16.70;2.30;;;16.70;89.60;;;;;;10360410;28;20896;-44
2022/10/01 08:37:39;;;;;;;10.80;1.80;;;16.80;91.40;;;;;;10366951;28;20052;-42
2022/10/01 08:42:50;;;;;;;12.23;2.55;;;16.70;90.00;;;;;;10363408;28;20156;-37
2022/10/01 08:47:58;;;;;;;16.08;2.00;;;17.30;88.30;;;;;;10366204;28;20056;-44
2022/10/01 08:53:04;;;;;;;18.55;2.45;;;16.60;90.90;;;;;;10354186;28;20050;-42
2022/10/01 08:58:12;;;;;;;13.32;2.58;;;16.80;90.70;;;;;;10367233;28;20041;-41
2022/10/01 09:03:15;;;;;;;9.15;2.10;;;16.80;90.30;;;;;;10365051;28;20097;-41
2022/10/01 09:08:42;;;;;;;14.93;2.70;;;17.60;87.50;;;;;;10364919;28;20050;-42
2022/10/01 09:14:04;;;;;;;15.05;2.53;;;17.60;86.70;;;;;;10352929;28;20043;-41
2022/10/01 09:19:16;;;;;;;15.27;2.90;;;17.80;87.60;;;;;;10361693;28;20289;-40
2022/10/01 09:24:30;;;;;;;24.40;3.27;;;18.20;87.80;;;;;;10356643;28;20149;-41
2022/10/01 09:29:43;;;;;;;12.32;1.77;;;17.60;87.60;;;;;;10366244;28;20041;-40
2022/10/01 09:34:45;;;;;;;10.88;1.63;;;17.90;85.30;;;;;;10360383;28;20531;-42
2022/10/01 09:40:05;;;;;;;11.95;1.50;;;18.20;83.90;;;;;;10358575;28;20054;-41
2022/10/01 09:45:10;;;;;;;8.77;1.65;;;17.80;85.00;;;;;;10350867;28;20065;-41
2022/10/01 09:50:16;;;;;;;9.48;1.50;;;17.70;84.90;;;;;;10355843;28;20670;-39
2022/10/01 09:55:31;;;;;;;10.05;1.45;;;17.90;84.70;;;;;;10354353;28;20057;-39
2022/10/01 10:00:33;;;;;;;15.40;1.48;;;18.20;83.50;;;;;;10358434;28;20046;-40
2022/10/01 10:05:41;;;;;;;8.30;1.60;;;18.50;84.20;;;;;;10363930;28;20138;-38
2022/10/01 10:10:51;;;;;;;6.38;1.50;;;17.60;83.10;;;;;;10376539;28;20073;-40
2022/10/01 10:15:57;;;;;;;12.07;1.88;;;17.60;83.70;;;;;;10358395;28;20116;-43
2022/10/01 10:21:02;;;;;;;17.08;2.15;;;18.00;82.50;;;;;;10361503;28;20410;-40
2022/10/01 10:26:06;;;;;;;9.65;2.40;;;17.60;85.00;;;;;;10352821;28;20050;-38
2022/10/01 10:31:13;;;;;;;12.60;1.50;;;17.50;85.80;;;;;;10360412;28;20046;-43
2022/10/01 10:36:16;;;;;;;14.15;1.90;;;17.80;84.80;;;;;;10348457;28;20126;-41
2022/10/01 10:41:25;;;;;;;14.85;1.92;;;18.10;81.20;;;;;;10362273;28;20121;-41
2022/10/01 10:46:30;;;;;;;11.57;2.20;;;17.50;84.10;;;;;;10352824;28;20781;-42
2022/10/01 10:51:52;;;;;;;19.73;2.35;;;17.90;82.80;;;;;;10353808;28;20068;-41
2022/10/01 10:57:01;;;;;;;10.57;1.50;;;18.10;82.50;;;;;;10356185;28;20050;-42
2022/10/01 11:02:05;;;;;;;14.80;1.80;;;18.10;81.60;;;;;;10346706;28;20049;-42
2022/10/01 11:07:08;;;;;;;9.13;1.48;;;17.70;83.80;;;;;;10350681;28;20060;-39
2022/10/01 11:12:23;;;;;;;10.65;1.98;;;18.00;82.10;;;;;;10353403;28;20054;-46
2022/10/01 11:17:42;;;;;;;9.93;2.03;;;17.90;82.70;;;;;;10341352;28;20058;-40
2022/10/01 11:22:56;;;;;;;18.98;1.80;;;18.30;81.00;;;;;;10356898;28;20048;-41
2022/10/01 11:28:08;;;;;;;10.30;1.80;;;18.20;81.20;;;;;;10346431;28;20060;-44
2022/10/01 11:33:22;;;;;;;11.27;2.63;;;18.30;80.90;;;;;;10347861;28;20078;-39
2022/10/01 11:38:50;;;;;;;16.85;1.80;;;18.40;79.70;;;;;;10365736;28;20077;-38
2022/10/01 11:43:57;;;;;;;6.82;1.23;;;18.30;80.70;;;;;;10353557;28;20084;-42
2022/10/01 11:49:04;;;;;;;11.15;1.98;;;19.00;77.60;;;;;;10357235;28;20041;-41
2022/10/01 11:54:10;;;;;;;11.50;2.00;;;18.70;78.60;;;;;;10351303;28;20077;-45
2022/10/01 11:59:19;;;;;;;9.25;1.55;;;18.30;77.00;;;;;;10359605;28;20062;-39
2022/10/01 12:04:31;;;;;;;11.10;2.20;;;18.50;79.50;;;;;;10358933;28;20136;-43
2022/10/01 12:09:41;;;;;;;12.07;1.65;;;18.90;77.00;;;;;;10350593;28;20050;-41
2022/10/01 12:14:50;;;;;;;7.22;1.15;;;18.90;76.80;;;;;;10359803;28;20136;-41
2022/10/01 12:19:56;;;;;;;12.15;2.00;;;19.40;75.50;;;;;;10348892;28;20046;-41
2022/10/01 12:24:58;;;;;;;6.20;1.38;;;18.70;76.90;;;;;;10367832;28;20064;-42
2022/10/01 12:30:05;;;;;;;14.52;2.58;;;19.00;76.40;;;;;;10357168;28;20053;-41
2022/10/01 12:35:18;;;;;;;16.55;2.92;;;18.80;75.80;;;;;;10349604;28;20073;-44
2022/10/01 12:40:27;;;;;;;11.60;3.10;;;19.10;74.50;;;;;;10346360;28;20046;-42
2022/10/01 12:45:42;;;;;;;10.88;1.42;;;18.80;74.90;;;;;;10347417;28;20053;-41
2022/10/01 12:50:52;;;;;;;14.82;1.83;;;19.10;75.00;;;;;;10347145;28;20046;-41
2022/10/01 12:56:07;;;;;;;13.15;2.22;;;19.30;74.60;;;;;;10343553;28;20125;-39
2022/10/01 13:01:18;;;;;;;13.75;1.60;;;19.20;75.60;;;;;;10352319;28;20102;-43
2022/10/01 13:06:31;;;;;;;13.43;2.17;;;19.10;76.20;;;;;;10360538;28;21360;-41
2022/10/01 13:11:55;;;;;;;12.80;2.15;;;19.50;73.90;;;;;;10358082;28;20077;-40
2022/10/01 13:17:07;;;;;;;12.85;1.90;;;19.80;73.90;;;;;;10353874;28;20562;-41
2022/10/01 13:22:15;;;;;;;11.10;1.63;;;19.90;71.90;;;;;;10355081;28;20050;-44
2022/10/01 13:27:24;;;;;;;9.93;1.70;;;19.40;72.00;;;;;;10364919;28;20077;-51
2022/10/01 13:32:31;;;;;;;13.00;1.63;;;19.20;74.50;;;;;;10360039;28;20037;-43
2022/10/01 13:37:38;;;;;;;7.22;1.77;;;19.90;72.80;;;;;;10359668;28;20073;-40
2022/10/01 13:42:45;;;;;;;15.60;2.55;;;19.70;73.80;;;;;;10358567;28;20047;-41
2022/10/01 13:47:49;;;;;;;11.40;1.85;;;19.40;75.10;;;;;;10361042;28;20042;-43
2022/10/01 13:52:51;;;;;;;14.23;1.58;;;19.10;75.10;;;;;;10360996;28;20161;-43
2022/10/01 13:58:02;;;;;;;10.98;2.28;;;19.20;77.00;;;;;;10361265;28;20129;-41
2022/10/01 14:03:32;;;;;;;12.15;1.77;;;19.80;73.70;;;;;;10358155;28;20046;-42
2022/10/01 14:08:39;;;;;;;15.27;2.17;;;19.90;73.70;;;;;;10352718;28;20139;-41
2022/10/01 14:19:10;;;;;;;10.00;1.60;;;20.80;70.00;;;;;;10327223;28;20144;-42
2022/10/01 14:24:22;;;;;;;7.70;1.25;;;20.40;68.90;;;;;;10347730;28;20558;-41
2022/10/01 14:29:40;;;;;;;5.95;1.45;;;20.60;68.30;;;;;;10348653;28;20046;-40
2022/10/01 14:34:52;;;;;;;13.70;1.70;;;20.10;71.40;;;;;;10340190;28;20062;-44
2022/10/01 14:40:01;;;;;;;15.55;1.60;;;19.90;71.40;;;;;;10343120;28;20046;-43
2022/10/01 14:45:15;;;;;;;14.90;1.88;;;20.10;71.90;;;;;;10338586;28;20050;-39
2022/10/01 14:50:20;;;;;;;7.43;1.10;;;20.60;70.20;;;;;;10331225;28;20134;-41
2022/10/01 14:55:23;;;;;;;19.88;3.60;;;20.70;70.00;;;;;;10339102;28;20054;-42
2022/10/01 15:00:27;;;;;;;6.60;0.98;;;20.60;68.20;;;;;;10338908;28;20081;-40
2022/10/01 15:05:32;;;;;;;10.25;1.60;;;21.00;69.80;;;;;;10346264;28;20062;-38
2022/10/01 15:10:33;;;;;;;15.32;1.67;;;20.40;69.50;;;;;;10357301;28;20138;-39
2022/10/01 15:15:40;;;;;;;11.85;3.08;;;19.60;70.50;;;;;;10352985;28;20062;-40
2022/10/01 15:20:53;;;;;;;9.45;1.30;;;19.50;72.70;;;;;;10339485;28;20043;-42
2022/10/01 15:25:56;;;;;;;14.02;1.50;;;20.30;70.90;;;;;;10357265;28;20054;-39
2022/10/01 15:31:00;;;;;;;10.52;1.70;;;20.70;68.90;;;;;;10351735;28;20046;-43
2022/10/01 15:36:06;;;;;;;22.85;2.42;;;20.70;66.50;;;;;;10353119;28;20125;-39
2022/10/01 15:41:20;;;;;;;11.00;1.52;;;20.90;67.10;;;;;;10359958;28;20157;-43
2022/10/01 15:46:31;;;;;;;13.68;2.17;;;20.80;69.80;;;;;;10368904;28;20080;-40
2022/10/01 15:51:35;;;;;;;7.63;1.77;;;20.90;68.90;;;;;;10362040;28;20121;-44
2022/10/01 15:56:40;;;;;;;15.65;1.67;;;20.70;67.10;;;;;;10347882;28;20093;-43
2022/10/01 16:01:42;;;;;;;14.68;2.03;;;19.50;71.90;;;;;;10358122;28;20049;-41
2022/10/01 16:06:50;;;;;;;13.32;2.65;;;20.10;69.70;;;;;;10356572;28;20150;-44
2022/10/01 16:11:55;;;;;;;10.23;2.10;;;19.70;71.40;;;;;;10340846;28;20050;-41
2022/10/01 16:17:34;;;;;;;7.03;1.75;;;20.20;72.40;;;;;;10360414;28;20089;-40
2022/10/01 16:22:38;;;;;;;9.77;2.35;;;20.10;69.00;;;;;;10349190;28;20476;-39
2022/10/01 16:27:46;;;;;;;14.65;2.05;;;19.90;71.00;;;;;;10355213;28;20554;-37
2022/10/01 16:32:48;;;;;;;9.25;1.73;;;19.90;73.70;;;;;;10355150;28;20077;-42
2022/10/01 16:37:53;;;;;;;10.23;1.63;;;19.50;75.90;;;;;;10369054;28;20157;-42
2022/10/01 16:42:56;;;;;;;19.95;2.00;;;19.20;76.70;;;;;;10371001;28;20054;-37
2022/10/01 16:47:59;;;;;;;11.93;1.70;;;20.60;72.40;;;;;;10349485;28;20109;-44
2022/10/01 16:53:03;;;;;;;8.88;1.60;;;19.70;76.80;;;;;;10365061;28;20099;-44
2022/10/01 16:58:06;;;;;;;12.10;1.40;;;20.30;74.70;;;;;;10365142;28;20081;-39
2022/10/01 17:03:14;;;;;;;4.07;1.38;;;20.10;72.70;;;;;;10350607;28;20609;-39
2022/10/01 17:08:17;;;;;;;13.88;2.22;;;19.40;74.30;;;;;;10349624;28;20197;-39
2022/10/01 17:13:19;;;;;;;12.38;1.73;;;18.30;78.00;;;;;;10355743;28;20054;-36
2022/10/01 17:18:21;;;;;;;8.18;1.30;;;17.50;76.50;;;;;;10347463;28;20068;-42
2022/10/01 17:23:24;;;;;;;10.77;2.03;;;17.60;77.90;;;;;;10355967;28;20070;-39
2022/10/01 17:28:26;;;;;;;8.73;2.15;;;17.60;80.70;;;;;;10370349;28;20184;-40
2022/10/01 17:33:29;;;;;;;11.63;2.07;;;17.40;83.70;;;;;;10353875;28;20077;-40
2022/10/01 17:38:32;;;;;;;6.15;1.20;;;17.10;84.90;;;;;;10369073;28;20061;-42
2022/10/01 17:43:37;;;;;;;9.40;1.40;;;17.30;87.10;;;;;;10364066;28;20034;-41
2022/10/01 17:48:40;;;;;;;12.88;1.95;;;16.70;87.80;;;;;;10367065;28;20042;-42
2022/10/01 17:53:43;;;;;;;;;;;17.00;87.80;;;;;;10361104;28;20049;-41
2022/10/01 17:58:46;;;;;;;9.55;1.73;;;17.00;87.40;;;;;;10350579;28;20024;-40
2022/10/01 18:03:51;;;;;;;12.77;2.28;;;17.00;86.50;;;;;;10357894;28;20141;-40
2022/10/01 18:08:54;;;;;;;17.00;2.30;;;17.10;86.60;;;;;;10346964;28;20141;-38
2022/10/01 18:13:56;;;;;;;13.05;2.58;;;17.90;84.10;;;;;;10361140;28;20129;-40
2022/10/01 18:19:00;;;;;;;13.80;1.90;;;18.60;79.50;;;;;;10368725;28;20446;-39
2022/10/01 18:24:03;;;;;;;12.52;2.80;;;18.70;80.90;;;;;;10373127;28;20132;-41
2022/10/01 18:29:05;;;;;;;8.05;2.13;;;18.50;80.20;;;;;;10382291;28;20042;-37
2022/10/01 18:34:15;;;;;;;9.38;1.83;;;18.50;82.70;;;;;;10363189;28;20146;-39
2022/10/01 18:39:26;;;;;;;6.97;1.63;;;18.90;80.30;;;;;;10367747;28;20042;-38
2022/10/01 18:44:28;;;;;;;11.30;2.22;;;18.70;79.20;;;;;;10353545;28;20150;-40
2022/10/01 18:50:00;;;;;;;14.32;2.35;;;18.60;77.80;;;;;;10366042;28;20443;-39
2022/10/01 18:55:29;;;;;;;7.40;1.70;;;18.90;77.80;;;;;;10368485;28;20058;-34
2022/10/01 19:00:40;;;;;;;7.93;1.63;;;19.40;76.50;;;;;;10354667;28;20133;-40
2022/10/01 19:06:08;;;;;;;12.93;2.55;;;18.90;78.80;;;;;;10363521;28;20133;-39
2022/10/01 19:11:17;;;;;;;14.20;2.08;;;18.80;79.40;;;;;;10356927;28;20086;-40
2022/10/01 19:16:34;;;;;;;25.83;3.15;;;18.50;80.60;;;;;;10358070;28;20074;-39
2022/10/01 19:21:44;;;;;;;11.85;2.53;;;18.90;79.30;;;;;;10354867;28;20042;-39
2022/10/01 19:26:56;;;;;;;11.55;1.63;;;18.60;80.40;;;;;;10368369;28;20382;-39
2022/10/01 19:32:02;;;;;;;11.73;1.67;;;19.00;79.50;;;;;;10348263;28;20164;-39
2022/10/01 19:37:10;;;;;;;13.73;2.00;;;19.30;78.90;;;;;;10368769;28;20093;-37
2022/10/01 19:42:19;;;;;;;11.98;2.50;;;19.00;78.80;;;;;;10351850;28;20045;-39
2022/10/01 19:47:31;;;;;;;17.50;3.05;;;18.40;81.40;;;;;;10349578;28;20049;-40
2022/10/01 19:52:37;;;;;;;11.13;2.70;;;19.30;78.70;;;;;;10358101;28;20077;-38
2022/10/01 19:57:42;;;;;;;8.18;2.03;;;18.90;79.10;;;;;;10334714;28;20141;-40
2022/10/01 20:02:51;;;;;;;15.57;2.67;;;19.10;79.50;;;;;;10365764;28;20664;-39
2022/10/01 20:08:05;;;;;;;17.80;2.50;;;18.80;79.40;;;;;;10369152;28;20089;-39
2022/10/01 20:13:20;;;;;;;11.55;2.42;;;18.50;82.10;;;;;;10389338;28;20091;-36
2022/10/01 20:18:32;;;;;;;13.68;2.25;;;18.70;80.50;;;;;;10371545;28;20054;-40
2022/10/01 20:23:43;;;;;;;14.32;2.38;;;18.20;81.90;;;;;;10355875;28;20481;-38
2022/10/01 20:28:54;;;;;;;11.63;1.85;;;18.50;81.70;;;;;;10371307;28;20053;-37
2022/10/01 20:34:01;;;;;;;8.93;2.20;;;18.30;82.40;;;;;;10359397;28;20050;-41
2022/10/01 20:39:11;;;;;;;10.45;1.77;;;18.00;83.30;;;;;;10387908;28;20146;-37
2022/10/01 20:44:20;;;;;;;9.77;2.10;;;18.50;80.80;;;;;;10367905;28;20750;-40
2022/10/01 20:49:28;;;;;;;17.52;2.72;;;18.40;82.20;;;;;;10383149;28;20140;-38
2022/10/01 20:54:35;;;;;;;10.25;2.35;;;18.70;80.70;;;;;;10358339;28;20063;-39
2022/10/01 20:59:42;;;;;;;15.93;2.17;;;18.60;80.70;;;;;;10355598;28;20038;-38
2022/10/01 21:04:50;;;;;;;11.27;2.00;;;17.80;84.40;;;;;;10367481;28;20530;-41
2022/10/01 21:09:56;;;;;;;18.33;2.38;;;17.80;85.30;;;;;;10367021;28;20050;-38
2022/10/01 21:15:02;;;;;;;16.52;2.15;;;17.80;85.60;;;;;;10341567;28;20042;-40
2022/10/01 21:20:43;;;;;;;16.27;2.00;;;17.60;87.40;;;;;;10360335;28;20752;-39
2022/10/01 21:25:56;;;;;;;8.75;1.40;;;17.60;83.80;;;;;;10382969;28;20091;-39
2022/10/01 21:31:12;;;;;;;9.10;1.27;;;16.80;85.80;;;;;;10359312;28;20410;-39
2022/10/01 21:36:21;;;;;;;10.25;1.38;;;16.70;89.00;;;;;;10336982;28;20092;-38
2022/10/01 21:41:52;;;;;;;5.78;1.45;;;17.40;86.00;;;;;;10362597;28;20037;-39
2022/10/01 21:47:01;;;;;;;16.85;2.00;;;18.30;81.60;;;;;;10333974;28;20054;-38
2022/10/01 21:52:12;;;;;;;8.27;1.73;;;18.20;81.30;;;;;;10347857;28;20121;-37
2022/10/01 21:57:32;;;;;;;8.68;1.20;;;19.30;77.70;;;;;;10361634;28;20132;-37
2022/10/01 22:02:43;;;;;;;14.68;1.95;;;19.40;72.20;;;;;;10354158;28;20092;-38
2022/10/01 22:07:52;;;;;;;7.30;1.20;;;19.80;73.80;;;;;;10343227;28;20050;-36
2022/10/01 22:12:59;;;;;;;6.65;1.52;;;19.20;77.10;;;;;;10352971;28;20132;-37
2022/10/01 22:18:05;;;;;;;12.88;1.60;;;17.50;84.70;;;;;;10343196;28;20498;-39
2022/10/01 22:23:11;;;;;;;7.25;1.45;;;16.60;90.30;;;;;;10361719;28;20053;-38
2022/10/01 22:28:18;;;;;;;10.77;1.67;;;17.30;87.50;;;;;;10345937;28;20471;-39
2022/10/01 22:33:27;;;;;;;15.63;1.92;;;18.30;83.20;;;;;;10360870;28;20049;-38
2022/10/01 22:38:35;;;;;;;10.27;2.05;;;18.50;81.30;;;;;;10352002;28;20050;-39
2022/10/01 22:43:39;;;;;;;20.20;2.97;;;17.70;86.40;;;;;;10354912;28;20046;-37
2022/10/01 22:48:53;;;;;;;12.82;2.22;;;16.70;91.30;;;;;;10352972;28;20140;-39
2022/10/01 22:54:15;;;;;;;9.50;2.08;;;16.40;91.50;;;;;;10355215;28;20077;-39
2022/10/01 22:59:29;;;;;;;15.88;2.08;;;16.60;91.60;;;;;;10339169;28;20124;-36
2022/10/01 23:04:48;;;;;;;16.02;1.98;;;17.30;89.90;;;;;;10341804;28;20100;-38
2022/10/01 23:09:58;;;;;;;12.95;2.25;;;16.90;91.10;;;;;;10357969;28;20141;-38
2022/10/01 23:15:17;;;;;;;15.75;2.22;;;17.40;90.40;;;;;;10355788;28;20049;-38
2022/10/01 23:20:29;;;;;;;19.23;3.45;;;16.90;91.20;;;;;;10347849;28;20512;-36
2022/10/01 23:25:46;;;;;;;15.45;2.03;;;16.60;91.20;;;;;;10354032;28;20042;-37
2022/10/01 23:30:58;;;;;;;12.60;2.30;;;17.00;91.10;;;;;;10365091;28;20081;-37
2022/10/01 23:36:08;;;;;;;16.65;2.58;;;16.80;91.30;;;;;;10344024;28;20058;-38
2022/10/01 23:41:17;;;;;;;22.80;2.83;;;16.80;91.20;;;;;;10346815;28;20082;-38
2022/10/01 23:46:23;;;;;;;15.15;2.13;;;17.00;90.70;;;;;;10350856;28;20054;-41
2022/10/01 23:51:31;;;;;;;17.00;3.20;;;16.70;92.00;;;;;;10340967;28;20053;-38
2022/10/01 23:56:48;;;;;;;17.30;2.50;;;16.60;92.60;;;;;;10344041;28;20035;-40
